Detall de PIREP

Printer-friendly versionPDF version

[2012/03/23 08:21:00]
Flight IATA:CT2111
Pilot Number:041
Company ICAO:CAT
Aircraft Type:DC3/A
PAX:17
Departing Airport: LEST
Destination Airport: LEVC
Alternate Airport:LEPA
Online: VATSIM
Route:FORNO A33 ZMR A33 DISKO A33 INDEG A33 MAGIN A33 HORTA A33 CJN A33 PRADO A33 CENTA
Flight Level:F160
No Slew and time accel
No pause
Crash detect
Detect pilot in Cockpit between each 30 and 45 minutes
08:21 Zero fuel Weight: 20811 Lbs, Fuel Weight: 3095 Lbs
08:21 VATSIM:LEST 230800Z 12007KT CAVOK 11/02 Q1018 NOSIG
08:21 VATSIM:LEVC 230800Z VRB02KT CAVOK 10/05 Q1024 NOSIG
08:22 VOICE CATALONIAN
08:26 Parking Brakes off
08:34 Take-off
08:34 Take off Weight: 23878 Lbs
08:34 Wind: 096º @ 006 Knots Heading: 165º
08:34 POS N42º 54´ 10´´ W008º 25´ 02´´
08:34 Gear Up: 096 Knots
08:34 Flaps:1 at 96 Knots
08:34 Flaps:0 at 104 Knots
08:49 Wind:039º@018 Knots Heading: 112º Ground Speed: 125 Knots Altitude 8024 ft
09:04 Wind:004º@017 Knots Heading: 119º Ground Speed: 142 Knots Altitude 14127 ft
09:09 TOC
09:09 Fuel Weight: 2687 Lb
09:19 Wind:353º@022 Knots Heading: 115º Ground Speed: 185 Knots Altitude 17122 ft
09:34 Wind:358º@024 Knots Heading: 102º Ground Speed: 194 Knots Altitude 16394 ft
09:40 TOD
09:40 Fuel Weight: 2302 Lb
09:42 TOC
09:42 Fuel Weight: 2273 Lb
09:49 Wind:008º@021 Knots Heading: 109º Ground Speed: 181 Knots Altitude 16466 ft
10:04 Wind:004º@030 Knots Heading: 107º Ground Speed: 191 Knots Altitude 16315 ft
10:05 TOD
10:05 Fuel Weight: 1987 Lb
10:06 TOC
10:06 Fuel Weight: 1974 Lb
10:19 Wind:017º@020 Knots Heading: 104º Ground Speed: 183 Knots Altitude 16391 ft
10:27 TOD
10:27 Fuel Weight: 1720 Lb
10:34 Wind:042º@022 Knots Heading: 112º Ground Speed: 177 Knots Altitude 12329 ft
10:49 Wind:087º@009 Knots Heading: 119º Ground Speed: 161 Knots Altitude 7388 ft
10:56 Flaps:1 at 127 Knots
10:59 Flaps:2 at 97 Knots
11:00 Gear Down: 83 Knots
11:00 Flaps:3 at 88 Knots
11:03 Flaps:4 at 79 Knots
11:04 Wind:163º@004 Knots Heading: 117º Ground Speed: 073 Knots Altitude 1033 ft
11:06 TouchDown:Rate -45 ft/min Speed: 72 Knots
11:06 VATSIM:LEVC 231030Z VRB02KT CAVOK 16/05 Q1024 NOSIG
11:06 Land
11:06 Wind:145º@004 Knots
11:06 Heading: 116º
11:06 Flight Duration: 02:32
11:06 Landing Weight: 22222 Lbs
11:06 POS N39º 29´ 34´´ W000º 29´ 30´´
11:09 Parking brakes on
11:09 Block to Block Duration: 02:43
11:09 Final Fuel: 1404 Lbls
11:09 Spent Fuel: 1690 Lbls
11:09 Flight Length: 415 NM
11:09 TOD Land Length: 94 NM

Exportar CSV

Powered by Drupal - Modified by Danger4k